Time;durP1;ratioP1;P1;durP2;ratioP2;P2;SDS_P1;SDS_P2;PMS_P1;PMS_P2;Temp;Humidity;BMP_temperature;BMP_pressure;BME280_temperature;BME280_humidity;BME280_pressure;Samples;Min_cycle;Max_cycle;Signal;HPM_P1;HPM_P2
2022/07/12 00:00:01;;;;;;;5.30;2.00;;;;;;;;;;6046350;23;20454;-83
2022/07/12 00:02:28;;;;;;;5.45;2.28;;;;;;;;;;6073143;23;20034;-82
2022/07/12 00:04:55;;;;;;;2.97;1.92;;;;;;;;;;6072361;23;20023;-81
2022/07/12 00:07:23;;;;;;;6.05;2.13;;;;;;;;;;6071930;23;20027;-83
2022/07/12 00:09:50;;;;;;;2.28;1.67;;;;;;;;;;6073504;23;20027;-82
2022/07/12 00:12:19;;;;;;;2.42;1.48;;;;;;;;;;6073148;23;20016;-82
2022/07/12 00:14:48;;;;;;;2.17;1.38;;;;;;;;;;6047432;23;20070;-83
2022/07/12 00:17:15;;;;;;;2.05;1.55;;;;;;;;;;6074228;23;20012;-82
2022/07/12 00:19:42;;;;;;;1.88;1.60;;;;;;;;;;6073136;23;20050;-82
2022/07/12 00:22:09;;;;;;;1.75;1.38;;;;;;;;;;6073146;23;20028;-82
2022/07/12 00:24:36;;;;;;;2.85;1.20;;;;;;;;;;6072883;23;20080;-82
2022/07/12 00:27:03;;;;;;;2.55;1.13;;;;;;;;;;6073159;23;20034;-82
2022/07/12 00:29:31;;;;;;;1.60;1.33;;;;;;;;;;6048080;23;20024;-82
2022/07/12 00:31:58;;;;;;;2.95;1.40;;;;;;;;;;6072824;23;20035;-82
2022/07/12 00:34:25;;;;;;;2.33;1.13;;;;;;;;;;6072076;23;20023;-81
2022/07/12 00:36:52;;;;;;;1.90;1.40;;;;;;;;;;6071806;23;20110;-84
2022/07/12 00:39:20;;;;;;;5.28;1.60;;;;;;;;;;6072103;23;20878;-83
2022/07/12 00:41:49;;;;;;;2.83;1.80;;;;;;;;;;6072314;23;20027;-83
2022/07/12 00:44:19;;;;;;;1.55;1.42;;;;;;;;;;6049072;23;20027;-82
2022/07/12 00:46:46;;;;;;;4.22;1.85;;;;;;;;;;6072513;23;20272;-82
2022/07/12 00:49:15;;;;;;;2.65;1.80;;;;;;;;;;6072407;23;20042;-82
2022/07/12 00:51:45;;;;;;;4.47;1.73;;;;;;;;;;6072522;23;20067;-83
2022/07/12 00:54:15;;;;;;;3.50;2.00;;;;;;;;;;6073464;23;20048;-81
2022/07/12 00:56:43;;;;;;;2.40;1.90;;;;;;;;;;6074631;23;20033;-82
2022/07/12 00:59:10;;;;;;;6.47;1.70;;;;;;;;;;6073283;23;20387;-82
2022/07/12 01:01:38;;;;;;;2.90;2.17;;;;;;;;;;6073069;23;20104;-83
2022/07/12 01:04:08;;;;;;;3.88;1.92;;;;;;;;;;6073283;23;20097;-82
2022/07/12 01:06:36;;;;;;;4.53;1.75;;;;;;;;;;6074019;23;20031;-82
2022/07/12 01:09:03;;;;;;;2.05;1.40;;;;;;;;;;6071824;23;20049;-82
2022/07/12 01:11:30;;;;;;;3.40;1.40;;;;;;;;;;6047309;23;20832;-82
2022/07/12 01:13:57;;;;;;;1.60;1.30;;;;;;;;;;6046731;23;20030;-83
2022/07/12 01:16:25;;;;;;;2.60;1.40;;;;;;;;;;6071857;23;20023;-82
2022/07/12 01:18:56;;;;;;;2.17;1.35;;;;;;;;;;6072059;23;20023;-82
2022/07/12 01:21:26;;;;;;;3.63;1.50;;;;;;;;;;6072632;23;20034;-82
2022/07/12 01:23:53;;;;;;;2.25;1.30;;;;;;;;;;6045616;23;20468;-82
2022/07/12 01:26:20;;;;;;;2.08;1.58;;;;;;;;;;6072239;23;20598;-81
2022/07/12 01:28:51;;;;;;;2.40;1.55;;;;;;;;;;6073360;23;20027;-81
2022/07/12 01:31:18;;;;;;;3.60;1.60;;;;;;;;;;6072402;23;20035;-81
2022/07/12 01:33:45;;;;;;;2.83;1.40;;;;;;;;;;6072689;23;20027;-82
2022/07/12 01:36:12;;;;;;;4.75;1.67;;;;;;;;;;6072339;23;20019;-81
2022/07/12 01:38:39;;;;;;;4.13;1.70;;;;;;;;;;6072729;23;20031;-81
2022/07/12 01:41:07;;;;;;;4.78;1.80;;;;;;;;;;6072161;23;20042;-83
2022/07/12 01:43:34;;;;;;;3.33;2.08;;;;;;;;;;6073812;23;20027;-82
2022/07/12 01:46:01;;;;;;;3.88;2.10;;;;;;;;;;6070990;23;20023;-81
2022/07/12 01:48:29;;;;;;;4.18;2.00;;;;;;;;;;6072531;23;20026;-82
2022/07/12 01:50:56;;;;;;;5.93;1.80;;;;;;;;;;6071676;23;20023;-82
2022/07/12 01:53:24;;;;;;;3.50;1.92;;;;;;;;;;6071905;23;20832;-82
2022/07/12 01:55:51;;;;;;;5.25;2.03;;;;;;;;;;6072224;23;20054;-82
2022/07/12 01:58:20;;;;;;;4.70;1.80;;;;;;;;;;6071992;23;20032;-82
2022/07/12 02:00:51;;;;;;;3.28;1.50;;;;;;;;;;6071728;23;20106;-82
2022/07/12 02:03:18;;;;;;;2.47;1.60;;;;;;;;;;6073812;23;20051;-82
2022/07/12 02:05:46;;;;;;;2.75;1.45;;;;;;;;;;6048048;23;20024;-81
2022/07/12 02:08:16;;;;;;;3.70;1.70;;;;;;;;;;6073020;23;20023;-82
2022/07/12 02:10:44;;;;;;;1.95;1.40;;;;;;;;;;6049357;23;20008;-81
2022/07/12 02:13:11;;;;;;;3.50;1.50;;;;;;;;;;6047515;23;20524;-82
2022/07/12 02:15:40;;;;;;;2.63;1.40;;;;;;;;;;6072975;23;20457;-82
2022/07/12 02:18:07;;;;;;;4.70;2.13;;;;;;;;;;6074381;23;20027;-81
2022/07/12 02:20:35;;;;;;;2.40;1.50;;;;;;;;;;6073944;23;20024;-81
2022/07/12 02:23:05;;;;;;;2.28;1.50;;;;;;;;;;6074322;23;20050;-81
2022/07/12 02:25:32;;;;;;;2.80;1.50;;;;;;;;;;6073839;23;20103;-82
2022/07/12 02:27:59;;;;;;;2.15;1.55;;;;;;;;;;6073716;23;20104;-81
2022/07/12 02:30:32;;;;;;;1.95;1.42;;;;;;;;;;6074014;23;20027;-82
2022/07/12 02:32:59;;;;;;;1.73;1.60;;;;;;;;;;6072436;23;20050;-82
2022/07/12 02:35:26;;;;;;;1.48;1.38;;;;;;;;;;6073455;23;20030;-82
2022/07/12 02:37:54;;;;;;;3.33;1.50;;;;;;;;;;6048519;23;20019;-81
2022/07/12 02:43:06;;;;;;;1.92;1.52;;;;;;;;;;6074221;23;20522;-84
2022/07/12 02:45:33;;;;;;;2.22;1.60;;;;;;;;;;6072956;23;20054;-82
2022/07/12 02:48:00;;;;;;;2.80;1.48;;;;;;;;;;6073152;23;20058;-82
2022/07/12 02:50:28;;;;;;;1.38;1.27;;;;;;;;;;6072870;23;20028;-83
2022/07/12 02:52:55;;;;;;;1.38;1.27;;;;;;;;;;6074352;23;20011;-81
2022/07/12 02:55:22;;;;;;;2.55;1.65;;;;;;;;;;6074271;23;20023;-82
2022/07/12 02:57:49;;;;;;;1.70;1.60;;;;;;;;;;6074596;23;20052;-81
2022/07/12 03:00:16;;;;;;;1.42;1.20;;;;;;;;;;6052804;23;20027;-82
2022/07/12 03:02:43;;;;;;;3.55;1.27;;;;;;;;;;6075316;23;20771;-82
2022/07/12 03:05:11;;;;;;;1.80;1.10;;;;;;;;;;6076179;23;20343;-83
2022/07/12 03:07:38;;;;;;;2.22;1.20;;;;;;;;;;6074448;23;20111;-81
2022/07/12 03:10:05;;;;;;;1.38;1.25;;;;;;;;;;6074738;23;20381;-81
2022/07/12 03:12:32;;;;;;;1.55;1.15;;;;;;;;;;6076303;23;20839;-81
2022/07/12 03:15:00;;;;;;;6.68;1.65;;;;;;;;;;6049410;23;20023;-81
2022/07/12 03:17:29;;;;;;;2.15;1.50;;;;;;;;;;6049948;23;20106;-82
2022/07/12 03:19:56;;;;;;;3.80;1.30;;;;;;;;;;6076168;23;20050;-82
2022/07/12 03:22:24;;;;;;;2.53;1.45;;;;;;;;;;6076137;23;20039;-81
2022/07/12 03:24:51;;;;;;;3.50;1.55;;;;;;;;;;6075167;23;20024;-82
2022/07/12 03:27:18;;;;;;;2.10;1.45;;;;;;;;;;6076270;23;20033;-81
2022/07/12 03:29:45;;;;;;;2.33;1.40;;;;;;;;;;6075288;23;20722;-82
2022/07/12 03:32:13;;;;;;;1.98;1.58;;;;;;;;;;6049639;23;20030;-81
2022/07/12 03:34:40;;;;;;;3.20;1.73;;;;;;;;;;6075140;23;20011;-83
2022/07/12 03:37:07;;;;;;;2.50;1.70;;;;;;;;;;6075346;23;20784;-82
2022/07/12 03:39:34;;;;;;;2.95;1.80;;;;;;;;;;6075118;23;20012;-82
2022/07/12 03:42:01;;;;;;;4.35;1.52;;;;;;;;;;6075176;23;20031;-81
2022/07/12 03:44:30;;;;;;;1.83;1.50;;;;;;;;;;6075599;23;20027;-82
2022/07/12 03:46:58;;;;;;;2.38;1.52;;;;;;;;;;6074286;23;20034;-82
2022/07/12 03:49:25;;;;;;;1.92;1.40;;;;;;;;;;6075426;23;20822;-81
2022/07/12 03:51:52;;;;;;;2.45;1.42;;;;;;;;;;6074788;23;20094;-81
2022/07/12 03:54:20;;;;;;;2.55;1.65;;;;;;;;;;6074504;23;20016;-82
2022/07/12 03:59:33;;;;;;;3.95;1.63;;;;;;;;;;6073289;23;20035;-82
2022/07/12 04:02:01;;;;;;;7.00;1.70;;;;;;;;;;6072297;23;20087;-81
2022/07/12 04:04:28;;;;;;;4.55;2.00;;;;;;;;;;6073208;23;20046;-81
2022/07/12 04:06:56;;;;;;;3.85;1.90;;;;;;;;;;6073886;23;20125;-82
2022/07/12 04:09:23;;;;;;;5.03;1.90;;;;;;;;;;6073155;23;20031;-83
2022/07/12 04:11:50;;;;;;;3.67;2.15;;;;;;;;;;6074845;23;20030;-81
2022/07/12 04:14:17;;;;;;;4.15;2.20;;;;;;;;;;6073342;23;20026;-82
2022/07/12 04:16:44;;;;;;;3.40;2.00;;;;;;;;;;6073832;23;20023;-82
2022/07/12 04:19:11;;;;;;;7.10;2.50;;;;;;;;;;6048216;23;20031;-81
2022/07/12 04:21:39;;;;;;;3.40;2.20;;;;;;;;;;6072545;23;20047;-82
2022/07/12 04:24:06;;;;;;;4.60;3.00;;;;;;;;;;6071593;23;20454;-82
2022/07/12 04:26:34;;;;;;;6.15;3.00;;;;;;;;;;6073037;23;20027;-81
2022/07/12 04:29:01;;;;;;;7.35;2.75;;;;;;;;;;6073851;23;20024;-82
2022/07/12 04:31:28;;;;;;;4.32;3.10;;;;;;;;;;6047785;23;20249;-82
2022/07/12 04:33:56;;;;;;;7.20;3.47;;;;;;;;;;6074482;23;20741;-82
2022/07/12 04:36:24;;;;;;;6.65;3.10;;;;;;;;;;6074898;23;20025;-81
2022/07/12 04:39:02;;;;;;;5.68;3.35;;;;;;;;;;6078201;23;20031;-82
2022/07/12 04:41:50;;;;;;;8.50;3.10;;;;;;;;;;6048364;23;20023;-82
2022/07/12 04:44:17;;;;;;;5.55;2.83;;;;;;;;;;6047732;23;20733;-81
2022/07/12 04:46:44;;;;;;;8.40;3.45;;;;;;;;;;6071436;23;20030;-83
2022/07/12 04:49:14;;;;;;;5.90;3.60;;;;;;;;;;6070960;23;20060;-81
2022/07/12 04:51:41;;;;;;;7.00;3.55;;;;;;;;;;6072706;23;20047;-82
2022/07/12 04:54:08;;;;;;;6.70;3.70;;;;;;;;;;6073441;23;20019;-82
2022/07/12 04:56:35;;;;;;;8.63;3.95;;;;;;;;;;6072530;23;20023;-81
2022/07/12 04:59:03;;;;;;;4.85;3.20;;;;;;;;;;6072117;23;20778;-83
2022/07/12 05:01:30;;;;;;;8.40;3.70;;;;;;;;;;6071836;23;20106;-81
2022/07/12 05:03:57;;;;;;;7.32;3.70;;;;;;;;;;6075731;23;20126;-81
2022/07/12 05:06:24;;;;;;;6.47;3.80;;;;;;;;;;6072753;23;20016;-82
2022/07/12 05:08:52;;;;;;;6.15;3.70;;;;;;;;;;6071544;23;20061;-81
2022/07/12 05:11:19;;;;;;;9.80;3.22;;;;;;;;;;6071801;23;20818;-82
2022/07/12 05:13:46;;;;;;;9.07;4.25;;;;;;;;;;6071137;23;20044;-81
2022/07/12 05:16:14;;;;;;;7.57;3.97;;;;;;;;;;6071141;23;20030;-81
2022/07/12 05:18:41;;;;;;;8.30;4.53;;;;;;;;;;6073042;23;20055;-81
2022/07/12 05:21:08;;;;;;;12.25;4.35;;;;;;;;;;6046581;23;20034;-81
2022/07/12 05:23:35;;;;;;;8.25;5.10;;;;;;;;;;6070450;23;20774;-81
2022/07/12 05:26:03;;;;;;;7.85;4.53;;;;;;;;;;6071229;23;20028;-81
2022/07/12 05:28:32;;;;;;;7.45;5.72;;;;;;;;;;6071526;23;20032;-81
2022/07/12 05:30:59;;;;;;;8.15;5.22;;;;;;;;;;6070560;23;20883;-83
2022/07/12 05:33:26;;;;;;;9.90;5.80;;;;;;;;;;6045051;23;20050;-82
2022/07/12 05:35:54;;;;;;;7.28;5.43;;;;;;;;;;6070936;23;20079;-83
2022/07/12 05:38:21;;;;;;;6.57;4.88;;;;;;;;;;6069753;23;20118;-81
2022/07/12 05:40:48;;;;;;;8.90;5.28;;;;;;;;;;6070685;23;20024;-82
2022/07/12 05:43:16;;;;;;;8.85;6.55;;;;;;;;;;6072259;23;20099;-80
2022/07/12 05:45:43;;;;;;;13.30;7.57;;;;;;;;;;6073410;23;20027;-82
2022/07/12 05:48:10;;;;;;;14.75;9.20;;;;;;;;;;6073809;23;20071;-84
2022/07/12 05:50:37;;;;;;;11.77;8.98;;;;;;;;;;6046191;23;20027;-82
2022/07/12 05:53:23;;;;;;;15.20;9.40;;;;;;;;;;6072510;23;20797;-82
2022/07/12 05:55:54;;;;;;;12.77;8.80;;;;;;;;;;6075341;23;20063;-83
2022/07/12 05:58:21;;;;;;;11.93;9.18;;;;;;;;;;6076987;23;20023;-82
2022/07/12 06:00:49;;;;;;;12.07;9.43;;;;;;;;;;6078848;23;20027;-82
2022/07/12 06:03:16;;;;;;;14.85;9.85;;;;;;;;;;6077161;23;20027;-82
2022/07/12 06:05:45;;;;;;;13.73;9.38;;;;;;;;;;6049488;23;20019;-82
2022/07/12 06:08:12;;;;;;;11.00;9.13;;;;;;;;;;6048423;23;20031;-82
2022/07/12 06:10:39;;;;;;;11.90;9.40;;;;;;;;;;6074118;23;20027;-82
2022/07/12 06:13:09;;;;;;;10.98;8.82;;;;;;;;;;6075455;23;20031;-82
2022/07/12 06:15:37;;;;;;;14.73;8.57;;;;;;;;;;6074875;23;20030;-82
2022/07/12 06:18:05;;;;;;;13.63;10.00;;;;;;;;;;6073874;23;20031;-82
2022/07/12 06:20:35;;;;;;;15.90;9.70;;;;;;;;;;6074512;23;20083;-83
2022/07/12 06:23:02;;;;;;;14.48;9.10;;;;;;;;;;6074172;23;20102;-82
2022/07/12 06:25:35;;;;;;;12.10;9.25;;;;;;;;;;6048751;23;20047;-82
2022/07/12 06:28:11;;;;;;;15.13;9.05;;;;;;;;;;6073849;23;20011;-82
2022/07/12 06:30:38;;;;;;;11.23;8.00;;;;;;;;;;6049031;23;20027;-82
2022/07/12 06:33:05;;;;;;;9.38;7.75;;;;;;;;;;6070852;23;20102;-82
2022/07/12 06:35:34;;;;;;;10.10;7.65;;;;;;;;;;6072514;23;20034;-82
2022/07/12 06:38:01;;;;;;;9.43;7.22;;;;;;;;;;6071976;23;20022;-83
2022/07/12 06:40:31;;;;;;;8.70;6.55;;;;;;;;;;6072575;23;20020;-82
2022/07/12 06:43:00;;;;;;;10.60;6.90;;;;;;;;;;6072895;23;20339;-82
2022/07/12 06:45:27;;;;;;;13.43;5.70;;;;;;;;;;6048582;23;20079;-82
2022/07/12 06:47:54;;;;;;;5.88;5.13;;;;;;;;;;6074180;23;20028;-82
2022/07/12 06:50:24;;;;;;;6.18;4.75;;;;;;;;;;6073770;23;20861;-81
2022/07/12 06:52:51;;;;;;;6.68;4.80;;;;;;;;;;6073502;23;20027;-82
2022/07/12 06:55:19;;;;;;;7.07;4.75;;;;;;;;;;6072795;23;20343;-82
2022/07/12 06:57:46;;;;;;;5.88;4.38;;;;;;;;;;6072824;23;20031;-83
2022/07/12 07:00:16;;;;;;;6.07;4.63;;;;;;;;;;6071943;23;20034;-81
2022/07/12 07:02:46;;;;;;;6.22;4.00;;;;;;;;;;6073363;23;20023;-82
2022/07/12 07:05:15;;;;;;;9.15;4.30;;;;;;;;;;6047444;23;20182;-82
2022/07/12 07:07:42;;;;;;;5.68;3.65;;;;;;;;;;6072697;23;20036;-81
2022/07/12 07:10:13;;;;;;;5.75;3.78;;;;;;;;;;6048362;23;20083;-81
2022/07/12 07:12:46;;;;;;;7.78;3.95;;;;;;;;;;6048838;23;20031;-82
2022/07/12 07:15:15;;;;;;;7.65;4.40;;;;;;;;;;6078771;23;20545;-82
2022/07/12 07:17:43;;;;;;;5.82;3.90;;;;;;;;;;6049959;23;20028;-82
2022/07/12 07:20:11;;;;;;;5.68;3.80;;;;;;;;;;6072369;23;20020;-82
2022/07/12 07:22:43;;;;;;;6.90;3.80;;;;;;;;;;6070640;23;20761;-83
2022/07/12 07:25:11;;;;;;;8.02;3.83;;;;;;;;;;6045170;23;20055;-81
2022/07/12 07:27:38;;;;;;;5.78;4.00;;;;;;;;;;6045536;23;20552;-82
2022/07/12 07:32:56;;;;;;;5.80;3.80;;;;;;;;;;6072098;23;20951;-81
2022/07/12 07:35:24;;;;;;;5.20;3.95;;;;;;;;;;6071030;23;20027;-82
2022/07/12 07:37:52;;;;;;;6.93;4.25;;;;;;;;;;6071187;23;20756;-80
2022/07/12 07:40:19;;;;;;;8.65;4.05;;;;;;;;;;6072248;23;20012;-80
2022/07/12 07:42:48;;;;;;;7.35;3.92;;;;;;;;;;6072951;23;20027;-80
2022/07/12 07:45:17;;;;;;;5.93;3.70;;;;;;;;;;6073768;23;20030;-80
2022/07/12 07:47:49;;;;;;;10.15;4.47;;;;;;;;;;6071319;23;20060;-82
2022/07/12 07:50:38;;;;;;;5.93;4.00;;;;;;;;;;6049743;23;20035;-80
2022/07/12 07:53:08;;;;;;;12.25;4.30;;;;;;;;;;6046468;23;20370;-81
2022/07/12 07:55:37;;;;;;;7.32;3.83;;;;;;;;;;6072016;23;20744;-80
2022/07/12 07:58:05;;;;;;;5.68;4.25;;;;;;;;;;6071100;23;20026;-81
2022/07/12 08:00:32;;;;;;;7.88;4.57;;;;;;;;;;6047676;23;20018;-81
2022/07/12 08:02:59;;;;;;;5.50;4.13;;;;;;;;;;6071735;23;20027;-80
2022/07/12 08:05:26;;;;;;;6.63;4.10;;;;;;;;;;6072114;23;20864;-82
2022/07/12 08:07:56;;;;;;;5.75;3.67;;;;;;;;;;6072458;23;20836;-81
2022/07/12 08:10:24;;;;;;;4.95;3.70;;;;;;;;;;6071371;23;20015;-80
2022/07/12 08:12:52;;;;;;;4.63;3.30;;;;;;;;;;6071042;23;20454;-80
2022/07/12 08:15:19;;;;;;;4.93;3.80;;;;;;;;;;6073303;23;20023;-80
2022/07/12 08:17:46;;;;;;;6.15;3.75;;;;;;;;;;6072444;23;20104;-80
2022/07/12 08:20:21;;;;;;;5.95;3.50;;;;;;;;;;6074381;23;20031;-80
2022/07/12 08:23:09;;;;;;;4.32;3.30;;;;;;;;;;6073703;23;20031;-80
2022/07/12 08:25:36;;;;;;;6.18;3.17;;;;;;;;;;6072850;23;20059;-80
2022/07/12 08:28:03;;;;;;;5.53;3.28;;;;;;;;;;6073950;23;20106;-80
2022/07/12 08:30:30;;;;;;;5.90;3.50;;;;;;;;;;6075073;23;20033;-81
2022/07/12 08:33:11;;;;;;;5.13;3.35;;;;;;;;;;6075296;23;20028;-80
2022/07/12 08:35:38;;;;;;;4.65;3.17;;;;;;;;;;6073718;23;20107;-81
2022/07/12 08:38:05;;;;;;;7.28;3.10;;;;;;;;;;6072202;23;20172;-81
2022/07/12 08:40:32;;;;;;;4.28;2.90;;;;;;;;;;6073190;23;20027;-80
2022/07/12 08:43:05;;;;;;;5.65;3.15;;;;;;;;;;6073102;23;20038;-81
2022/07/12 08:45:33;;;;;;;5.13;3.40;;;;;;;;;;6072528;23;20016;-80
2022/07/12 08:48:00;;;;;;;7.95;3.20;;;;;;;;;;6074298;23;20079;-81
2022/07/12 08:50:27;;;;;;;5.57;3.70;;;;;;;;;;6073063;23;20019;-81
2022/07/12 08:52:55;;;;;;;5.20;3.90;;;;;;;;;;6075082;23;20030;-81
2022/07/12 08:55:28;;;;;;;7.93;3.70;;;;;;;;;;6073583;23;20022;-80
2022/07/12 08:57:56;;;;;;;4.28;3.42;;;;;;;;;;6072521;23;20035;-81
2022/07/12 09:00:23;;;;;;;5.20;3.92;;;;;;;;;;6071947;23;20055;-80
2022/07/12 09:02:53;;;;;;;6.63;3.97;;;;;;;;;;6073938;23;20060;-81
2022/07/12 09:05:24;;;;;;;6.10;4.15;;;;;;;;;;6072450;23;20030;-81
2022/07/12 09:07:52;;;;;;;6.13;3.70;;;;;;;;;;6073633;23;20698;-81
2022/07/12 09:10:22;;;;;;;6.47;4.40;;;;;;;;;;6047396;23;20110;-81
2022/07/12 09:12:51;;;;;;;8.80;3.63;;;;;;;;;;6072999;23;20024;-81
2022/07/12 09:15:24;;;;;;;4.22;3.33;;;;;;;;;;6049172;23;20034;-82
2022/07/12 09:17:59;;;;;;;8.80;4.60;;;;;;;;;;6073348;23;20102;-82
2022/07/12 09:20:33;;;;;;;5.68;3.97;;;;;;;;;;6074065;23;20027;-81
2022/07/12 09:23:04;;;;;;;8.13;4.10;;;;;;;;;;6073991;23;20031;-81
2022/07/12 09:25:32;;;;;;;7.30;4.25;;;;;;;;;;6074231;23;20043;-82
2022/07/12 09:28:00;;;;;;;6.13;3.50;;;;;;;;;;6072017;23;20031;-81
2022/07/12 09:30:28;;;;;;;4.82;3.85;;;;;;;;;;6072720;23;20023;-81
2022/07/12 09:36:07;;;;;;;7.00;3.92;;;;;;;;;;6072738;23;20497;-81
2022/07/12 09:38:36;;;;;;;7.70;3.65;;;;;;;;;;6073036;23;20058;-81
2022/07/12 09:41:04;;;;;;;7.55;3.45;;;;;;;;;;6072001;23;20083;-81
2022/07/12 09:43:32;;;;;;;5.53;3.90;;;;;;;;;;6045973;23;20047;-84
2022/07/12 09:46:00;;;;;;;4.70;2.85;;;;;;;;;;6046699;23;20892;-81
2022/07/12 09:48:30;;;;;;;5.70;3.40;;;;;;;;;;6073323;23;20083;-81
2022/07/12 09:50:58;;;;;;;4.57;3.58;;;;;;;;;;6047749;23;20027;-81
2022/07/12 09:53:30;;;;;;;9.10;4.43;;;;;;;;;;6047312;23;20054;-81
2022/07/12 09:55:58;;;;;;;7.35;4.45;;;;;;;;;;6047624;23;20111;-81
2022/07/12 09:58:31;;;;;;;6.13;3.90;;;;;;;;;;6073084;23;20863;-81
2022/07/12 10:01:02;;;;;;;6.65;3.40;;;;;;;;;;6055573;23;20019;-81
2022/07/12 10:03:33;;;;;;;6.63;4.47;;;;;;;;;;6073646;23;20063;-81
2022/07/12 10:06:02;;;;;;;7.95;5.25;;;;;;;;;;6073801;23;20030;-82
2022/07/12 10:08:30;;;;;;;7.57;5.13;;;;;;;;;;6073109;23;20044;-81
2022/07/12 10:10:58;;;;;;;5.97;3.63;;;;;;;;;;6073520;23;20027;-81
2022/07/12 10:13:25;;;;;;;5.80;3.17;;;;;;;;;;6072930;23;20143;-81
2022/07/12 10:15:58;;;;;;;5.15;3.40;;;;;;;;;;6071308;23;20919;-82
2022/07/12 10:18:25;;;;;;;9.43;3.17;;;;;;;;;;6071751;23;20031;-82
2022/07/12 10:20:52;;;;;;;7.43;2.97;;;;;;;;;;6071876;23;20023;-82
2022/07/12 10:23:20;;;;;;;4.38;3.17;;;;;;;;;;6072418;23;20027;-81
2022/07/12 10:25:48;;;;;;;4.60;3.28;;;;;;;;;;6073449;23;20020;-81
2022/07/12 10:28:15;;;;;;;6.78;3.22;;;;;;;;;;6072443;23;20067;-81
2022/07/12 10:30:44;;;;;;;4.82;2.70;;;;;;;;;;6072062;23;20027;-82
2022/07/12 10:33:17;;;;;;;4.30;2.10;;;;;;;;;;6073643;23;20032;-81
2022/07/12 10:36:02;;;;;;;6.53;2.47;;;;;;;;;;6072146;23;20987;-81
2022/07/12 10:38:30;;;;;;;3.60;2.25;;;;;;;;;;6071237;23;20027;-81
2022/07/12 10:40:57;;;;;;;4.45;2.30;;;;;;;;;;6070976;23;20079;-81
2022/07/12 10:46:18;;;;;;;4.68;2.60;;;;;;;;;;6071244;23;20030;-81
2022/07/12 10:48:46;;;;;;;6.75;2.60;;;;;;;;;;6070429;23;20087;-82
2022/07/12 10:51:15;;;;;;;5.05;2.50;;;;;;;;;;6072242;23;20658;-81
2022/07/12 10:53:44;;;;;;;3.30;2.40;;;;;;;;;;6070229;23;20048;-82
2022/07/12 10:56:13;;;;;;;2.70;2.08;;;;;;;;;;6070511;23;20075;-81
2022/07/12 10:58:41;;;;;;;3.33;2.28;;;;;;;;;;6071329;23;20031;-82
2022/07/12 11:01:15;;;;;;;3.00;2.22;;;;;;;;;;6070817;23;20481;-82
2022/07/12 11:03:44;;;;;;;4.93;1.80;;;;;;;;;;6071484;23;20034;-81
2022/07/12 11:06:30;;;;;;;5.20;2.20;;;;;;;;;;6046703;23;20011;-83
2022/07/12 11:09:03;;;;;;;3.85;2.58;;;;;;;;;;6074109;23;20031;-84
2022/07/12 11:11:32;;;;;;;5.32;2.55;;;;;;;;;;6073861;23;20023;-81
2022/07/12 11:13:59;;;;;;;2.78;2.17;;;;;;;;;;6049083;23;20422;-81
2022/07/12 11:16:27;;;;;;;3.33;1.90;;;;;;;;;;6076286;23;21117;-81
2022/07/12 11:18:55;;;;;;;3.13;2.00;;;;;;;;;;6050328;23;20016;-82
2022/07/12 11:21:23;;;;;;;2.13;1.80;;;;;;;;;;6049607;23;20020;-81
2022/07/12 11:23:51;;;;;;;4.20;2.22;;;;;;;;;;6074634;23;20064;-82
2022/07/12 11:26:18;;;;;;;3.53;2.28;;;;;;;;;;6072170;23;20015;-81
2022/07/12 11:28:52;;;;;;;10.18;2.83;;;;;;;;;;6072481;23;20023;-81
2022/07/12 11:31:22;;;;;;;4.40;2.30;;;;;;;;;;6072360;23;20822;-83
2022/07/12 11:33:51;;;;;;;3.15;2.10;;;;;;;;;;6071871;23;20600;-82
2022/07/12 11:36:18;;;;;;;5.43;2.00;;;;;;;;;;6070919;23;20039;-82
2022/07/12 11:38:47;;;;;;;2.45;1.52;;;;;;;;;;6046739;23;20656;-82
2022/07/12 11:41:22;;;;;;;3.67;2.42;;;;;;;;;;6071131;23;20465;-81
2022/07/12 11:43:49;;;;;;;3.85;2.00;;;;;;;;;;6071188;23;20060;-81
2022/07/12 11:46:17;;;;;;;3.28;1.90;;;;;;;;;;6070720;23;20457;-82
2022/07/12 11:48:45;;;;;;;5.93;2.00;;;;;;;;;;6043280;23;20327;-82
2022/07/12 11:51:16;;;;;;;7.30;2.20;;;;;;;;;;6071720;23;21275;-81
2022/07/12 11:53:43;;;;;;;2.47;1.80;;;;;;;;;;6072570;23;20715;-82
2022/07/12 11:56:10;;;;;;;4.75;2.08;;;;;;;;;;6072389;23;20024;-81
2022/07/12 11:58:40;;;;;;;2.35;1.60;;;;;;;;;;6071662;23;20027;-82
2022/07/12 12:01:11;;;;;;;2.58;1.50;;;;;;;;;;6072712;23;20026;-81
2022/07/12 12:03:43;;;;;;;2.28;1.55;;;;;;;;;;6048959;23;20836;-81
2022/07/12 12:06:14;;;;;;;3.47;1.58;;;;;;;;;;6074753;23;20027;-81
2022/07/12 12:08:45;;;;;;;5.35;1.80;;;;;;;;;;6073321;23;20722;-81
2022/07/12 12:11:13;;;;;;;2.30;1.70;;;;;;;;;;6073117;23;20103;-81
2022/07/12 12:13:41;;;;;;;1.80;1.60;;;;;;;;;;6048746;23;20024;-80
2022/07/12 12:16:15;;;;;;;4.53;2.20;;;;;;;;;;6074643;23;20175;-83
2022/07/12 12:18:45;;;;;;;1.80;1.70;;;;;;;;;;6076634;23;20035;-84
2022/07/12 12:21:13;;;;;;;2.92;1.50;;;;;;;;;;6078715;23;20019;-81
2022/07/12 12:23:41;;;;;;;6.95;1.90;;;;;;;;;;6076904;23;20038;-82
2022/07/12 12:26:20;;;;;;;4.55;1.70;;;;;;;;;;6078270;23;20023;-82
2022/07/12 12:28:54;;;;;;;3.17;1.50;;;;;;;;;;6078634;23;20041;-82
2022/07/12 12:31:27;;;;;;;3.25;1.30;;;;;;;;;;6077129;23;21376;-81
2022/07/12 12:33:58;;;;;;;3.58;1.48;;;;;;;;;;6079685;23;20035;-83
2022/07/12 12:36:40;;;;;;;1.98;1.48;;;;;;;;;;6050938;23;20102;-81
2022/07/12 12:39:10;;;;;;;3.22;1.70;;;;;;;;;;6076793;23;20031;-81
2022/07/12 12:41:43;;;;;;;2.25;1.40;;;;;;;;;;6076150;23;20038;-81
2022/07/12 12:44:15;;;;;;;1.83;1.40;;;;;;;;;;6076870;23;20379;-81
2022/07/12 12:47:30;;;;;;;5.60;1.60;;;;;;;;;;6050175;23;20040;-82
2022/07/12 12:49:49;;;;;;;4.22;1.73;;;;;;;;;;6075216;23;20035;-82
2022/07/12 12:52:25;;;;;;;2.47;1.88;;;;;;;;;;6075660;23;20062;-82
2022/07/12 12:54:53;;;;;;;2.22;1.40;;;;;;;;;;6076446;23;20023;-81
2022/07/12 12:57:20;;;;;;;2.83;1.70;;;;;;;;;;6075112;23;20939;-82
2022/07/12 12:59:48;;;;;;;3.95;1.33;;;;;;;;;;6076829;23;20120;-83
2022/07/12 13:02:15;;;;;;;3.47;1.30;;;;;;;;;;6076005;23;20054;-82
2022/07/12 13:04:42;;;;;;;5.47;1.35;;;;;;;;;;6051948;23;20023;-81
2022/07/12 13:07:10;;;;;;;4.13;1.40;;;;;;;;;;6075833;23;20318;-82
2022/07/12 13:09:40;;;;;;;6.47;1.60;;;;;;;;;;6051937;23;20035;-81
2022/07/12 13:12:08;;;;;;;2.45;1.58;;;;;;;;;;6078344;23;20023;-83
2022/07/12 13:14:35;;;;;;;2.47;1.30;;;;;;;;;;6078275;23;20023;-82
2022/07/12 13:17:03;;;;;;;2.92;1.27;;;;;;;;;;6077830;23;20015;-81
2022/07/12 13:19:31;;;;;;;2.25;1.50;;;;;;;;;;6076507;23;20873;-81
2022/07/12 13:21:59;;;;;;;2.65;1.60;;;;;;;;;;6077187;23;20170;-83
2022/07/12 13:24:26;;;;;;;1.70;1.38;;;;;;;;;;6075854;23;20808;-81
2022/07/12 13:26:53;;;;;;;1.75;1.30;;;;;;;;;;6076589;23;20028;-81
2022/07/12 13:29:20;;;;;;;2.13;1.50;;;;;;;;;;6077116;23;20035;-81
2022/07/12 13:31:47;;;;;;;2.22;1.40;;;;;;;;;;6077537;23;20066;-81
2022/07/12 13:34:22;;;;;;;1.60;1.45;;;;;;;;;;6077052;23;20027;-82
2022/07/12 13:36:49;;;;;;;2.65;1.50;;;;;;;;;;6076406;23;20824;-82
2022/07/12 13:42:02;;;;;;;2.92;1.70;;;;;;;;;;6076554;23;20034;-81
2022/07/12 13:44:30;;;;;;;2.35;1.48;;;;;;;;;;6076268;23;20114;-82
2022/07/12 13:46:57;;;;;;;3.13;1.60;;;;;;;;;;6075226;23;20103;-81
2022/07/12 13:49:24;;;;;;;1.80;1.58;;;;;;;;;;6075774;23;20844;-82
2022/07/12 13:51:51;;;;;;;2.55;1.40;;;;;;;;;;6050986;23;20024;-81
2022/07/12 13:54:21;;;;;;;2.15;1.35;;;;;;;;;;6075707;23;20024;-81
2022/07/12 13:56:48;;;;;;;2.20;1.48;;;;;;;;;;6076303;23;20023;-82
2022/07/12 13:59:16;;;;;;;5.20;1.40;;;;;;;;;;6076248;23;20086;-81
2022/07/12 14:01:45;;;;;;;1.90;1.40;;;;;;;;;;6076418;23;20754;-81
2022/07/12 14:04:12;;;;;;;2.17;1.27;;;;;;;;;;6076614;23;20056;-81
2022/07/12 14:06:39;;;;;;;2.08;1.63;;;;;;;;;;6077241;23;20118;-81
2022/07/12 14:09:06;;;;;;;2.45;1.90;;;;;;;;;;6077033;23;20034;-82
2022/07/12 14:11:34;;;;;;;2.15;1.63;;;;;;;;;;6077832;23;20031;-81
2022/07/12 14:14:01;;;;;;;2.63;1.75;;;;;;;;;;6078077;23;20894;-82
2022/07/12 14:16:28;;;;;;;6.30;2.28;;;;;;;;;;6077580;23;20054;-82
2022/07/12 14:18:58;;;;;;;7.28;2.22;;;;;;;;;;6051310;23;20043;-81
2022/07/12 14:21:27;;;;;;;2.17;1.60;;;;;;;;;;6075477;23;20682;-82
2022/07/12 14:23:54;;;;;;;5.97;1.90;;;;;;;;;;6055110;23;20070;-84
2022/07/12 14:26:22;;;;;;;3.83;2.00;;;;;;;;;;6081077;23;20075;-81
2022/07/12 14:28:49;;;;;;;6.28;2.10;;;;;;;;;;6079239;23;20019;-82
2022/07/12 14:31:18;;;;;;;3.25;1.83;;;;;;;;;;6058436;23;20025;-81
2022/07/12 14:33:45;;;;;;;3.70;1.80;;;;;;;;;;6084240;23;20031;-81
2022/07/12 14:36:12;;;;;;;5.82;1.98;;;;;;;;;;6082683;23;20023;-82
2022/07/12 14:38:39;;;;;;;3.65;2.05;;;;;;;;;;6079981;23;20455;-82
2022/07/12 14:41:06;;;;;;;3.85;1.90;;;;;;;;;;6078129;23;20087;-85
2022/07/12 14:43:34;;;;;;;3.25;2.13;;;;;;;;;;6078426;23;20015;-82
2022/07/12 14:46:01;;;;;;;4.25;2.10;;;;;;;;;;6076659;23;20024;-80
2022/07/12 14:48:29;;;;;;;3.08;2.05;;;;;;;;;;6075241;23;20027;-82
2022/07/12 14:50:56;;;;;;;4.38;2.17;;;;;;;;;;6049349;23;20805;-81
2022/07/12 14:53:23;;;;;;;5.15;2.28;;;;;;;;;;6076442;23;20027;-81
2022/07/12 14:55:50;;;;;;;4.07;1.90;;;;;;;;;;6075953;23;20016;-81
2022/07/12 14:58:17;;;;;;;3.30;1.90;;;;;;;;;;6074329;23;20134;-82
2022/07/12 15:00:45;;;;;;;5.93;2.53;;;;;;;;;;6079196;23;20030;-81
2022/07/12 15:03:12;;;;;;;5.28;2.20;;;;;;;;;;6079506;23;20013;-82
2022/07/12 15:05:40;;;;;;;4.03;2.47;;;;;;;;;;6079790;23;20038;-83
2022/07/12 15:08:07;;;;;;;3.22;2.30;;;;;;;;;;6076772;23;20882;-81